Time;durP1;ratioP1;P1;durP2;ratioP2;P2;SDS_P1;SDS_P2;PMS_P1;PMS_P2;Temp;Humidity;BMP_temperature;BMP_pressure;BME280_temperature;BME280_humidity;BME280_pressure;Samples;Min_cycle;Max_cycle;Signal;HPM_P1;HPM_P2
2022/10/21 00:02:15;;;;;;;0.00;0.00;;;3.50;99.90;;;;;;5098399;28;20028;-74
2022/10/21 00:04:41;;;;;;;0.00;0.00;;;3.50;99.90;;;;;;5098451;28;20535;-75
2022/10/21 00:07:07;;;;;;;0.00;0.00;;;3.60;99.90;;;;;;5098154;28;20111;-75
2022/10/21 00:09:33;;;;;;;0.00;0.00;;;3.60;99.90;;;;;;5116400;28;20027;-75
2022/10/21 00:11:59;;;;;;;0.00;0.00;;;3.60;99.90;;;;;;5098334;28;20438;-75
2022/10/21 00:14:25;;;;;;;0.00;0.00;;;3.60;99.90;;;;;;5098518;28;20034;-76
2022/10/21 00:16:51;;;;;;;0.00;0.00;;;3.60;99.90;;;;;;5111892;28;20470;-75
2022/10/21 00:19:17;;;;;;;0.00;0.00;;;3.60;99.90;;;;;;5109680;28;20385;-75
2022/10/21 00:21:44;;;;;;;0.08;0.08;;;3.70;99.90;;;;;;5100840;28;20024;-74
2022/10/21 00:24:10;;;;;;;0.00;0.00;;;3.70;99.90;;;;;;5119235;27;20033;-74
2022/10/21 00:26:36;;;;;;;0.00;0.00;;;3.80;99.90;;;;;;5128248;28;20016;-74
2022/10/21 00:29:02;;;;;;;0.00;0.00;;;3.70;99.90;;;;;;5116140;28;20034;-75
2022/10/21 00:31:29;;;;;;;0.00;0.00;;;3.70;99.90;;;;;;5116819;28;20186;-75
2022/10/21 00:33:55;;;;;;;0.00;0.00;;;3.80;99.90;;;;;;5116089;28;20036;-74
2022/10/21 00:36:21;;;;;;;1.33;1.33;;;3.80;99.90;;;;;;5116178;28;20385;-74
2022/10/21 00:38:48;;;;;;;0.00;0.00;;;4.10;99.90;;;;;;5094469;28;20092;-75
2022/10/21 00:41:16;;;;;;;0.00;0.00;;;4.10;99.90;;;;;;5102078;28;20028;-74
2022/10/21 00:44:04;;;;;;;0.30;0.30;;;4.20;99.90;;;;;;5095298;28;20123;-75
2022/10/21 00:46:47;;;;;;;0.00;0.00;;;4.00;99.90;;;;;;5077661;28;20032;-75
2022/10/21 00:49:33;;;;;;;0.00;0.00;;;4.00;99.90;;;;;;5077235;28;20050;-74
2022/10/21 00:52:02;;;;;;;0.00;0.00;;;4.00;99.90;;;;;;5112389;28;20043;-75
2022/10/21 00:54:30;;;;;;;0.00;0.00;;;3.90;99.90;;;;;;5097157;28;20032;-75
2022/10/21 00:56:57;;;;;;;0.00;0.00;;;3.90;99.90;;;;;;5097520;28;20035;-75
2022/10/21 00:59:33;;;;;;;0.00;0.00;;;3.90;99.90;;;;;;5116063;28;20031;-75
2022/10/21 01:01:59;;;;;;;0.00;0.00;;;4.30;99.90;;;;;;5097819;28;20032;-75
2022/10/21 01:04:25;;;;;;;0.00;0.00;;;4.10;99.90;;;;;;5095168;28;20024;-75
2022/10/21 01:06:51;;;;;;;0.00;0.00;;;4.10;99.90;;;;;;5095334;28;20028;-75
2022/10/21 01:09:19;;;;;;;0.00;0.00;;;4.20;99.90;;;;;;5094940;28;20047;-75
2022/10/21 01:11:46;;;;;;;0.00;0.00;;;4.10;99.90;;;;;;5076933;28;20074;-75
2022/10/21 01:14:13;;;;;;;0.00;0.00;;;4.00;99.90;;;;;;5095058;28;20027;-75
2022/10/21 01:16:45;;;;;;;0.00;0.00;;;4.00;99.90;;;;;;5078854;28;20059;-75
2022/10/21 01:19:41;;;;;;;0.00;0.00;;;3.90;99.90;;;;;;5098536;28;20214;-75
2022/10/21 01:22:22;;;;;;;10.88;9.80;;;4.00;99.90;;;;;;5076678;28;20031;-75
2022/10/21 01:25:04;;;;;;;0.00;0.00;;;4.00;99.90;;;;;;5089991;28;20036;-75
2022/10/21 01:27:41;;;;;;;0.00;0.00;;;3.90;99.90;;;;;;5096891;28;20127;-75
2022/10/21 01:30:28;;;;;;;0.00;0.00;;;4.00;99.90;;;;;;5115305;28;20024;-75
2022/10/21 01:33:13;;;;;;;0.00;0.00;;;4.00;99.90;;;;;;5115248;28;20043;-74
2022/10/21 01:36:08;;;;;;;0.63;0.63;;;4.10;99.90;;;;;;5096693;28;20169;-75
2022/10/21 01:38:59;;;;;;;0.00;0.00;;;4.20;99.90;;;;;;5114760;28;20189;-75
2022/10/21 01:41:46;;;;;;;1.77;1.45;;;4.60;99.90;;;;;;5101763;28;20028;-75
2022/10/21 01:44:28;;;;;;;0.13;0.13;;;4.60;99.90;;;;;;5099120;28;20482;-75
2022/10/21 01:47:10;;;;;;;0.00;0.00;;;4.80;99.90;;;;;;5093231;28;20016;-75
2022/10/21 01:49:43;;;;;;;0.00;0.00;;;4.90;99.90;;;;;;5098089;28;20363;-75
2022/10/21 01:52:11;;;;;;;0.00;0.00;;;5.10;99.90;;;;;;5101356;28;20034;-75
2022/10/21 01:54:42;;;;;;;1.38;1.30;;;5.20;99.90;;;;;;5101901;28;20025;-75
2022/10/21 01:57:11;;;;;;;2.08;1.98;;;5.40;99.90;;;;;;5075853;28;20021;-74
2022/10/21 01:59:38;;;;;;;6.90;2.58;;;5.50;99.90;;;;;;5092750;28;20475;-76
2022/10/21 02:02:06;;;;;;;3.30;3.03;;;5.80;99.90;;;;;;5079280;28;20027;-76
2022/10/21 02:04:35;;;;;;;0.25;0.25;;;5.90;99.90;;;;;;5092258;28;20032;-75
2022/10/21 02:07:01;;;;;;;2.35;2.15;;;6.00;99.90;;;;;;5093179;28;20024;-75
2022/10/21 02:09:28;;;;;;;0.00;0.00;;;;;;;;;;5088951;28;20069;-75
2022/10/21 02:11:56;;;;;;;0.00;0.00;;;;;;;;;;5088012;28;20115;-74
2022/10/21 02:14:32;;;;;;;2.42;1.30;;;;;;;;;;5077910;28;20103;-74
2022/10/21 02:16:59;;;;;;;0.00;0.00;;;;;;;;;;5085293;28;20035;-75
2022/10/21 02:19:26;;;;;;;0.00;0.00;;;;;;;;;;5067899;28;20028;-74
2022/10/21 02:21:53;;;;;;;0.80;0.70;;;;;;;;;;5083054;28;20043;-75
2022/10/21 02:24:20;;;;;;;1.58;0.82;;;;;;;;;;5074802;28;20036;-76
2022/10/21 02:26:46;;;;;;;0.50;0.28;;;;;;;;;;5078673;28;20412;-75
2022/10/21 02:29:13;;;;;;;2.83;2.63;;;;;;;;;;5067701;28;20028;-77
2022/10/21 02:31:42;;;;;;;16.42;5.18;;;;;;;;;;5113614;28;20377;-76
2022/10/21 02:34:14;;;;;;;0.55;0.55;;;;;;;;;;5072336;28;20028;-75
2022/10/21 02:36:52;;;;;;;0.00;0.00;;;;;;;;;;5093359;28;20024;-77
2022/10/21 02:39:19;;;;;;;0.30;0.30;;;;;;;;;;5072454;28;20028;-76
2022/10/21 02:41:47;;;;;;;0.10;0.10;;;;;;;;;;5081585;28;20028;-74
2022/10/21 02:44:14;;;;;;;0.00;0.00;;;;;;;;;;5086609;28;20039;-74
2022/10/21 02:46:42;;;;;;;0.00;0.00;;;;;;;;;;5082535;28;20016;-75
2022/10/21 02:49:09;;;;;;;0.00;0.00;;;;;;;;;;5052572;28;20479;-75
2022/10/21 02:51:35;;;;;;;0.00;0.00;;;;;;;;;;5072988;28;20060;-74
2022/10/21 02:54:01;;;;;;;0.00;0.00;;;;;;;;;;5084172;28;20037;-75
2022/10/21 02:56:28;;;;;;;0.10;0.10;;;;;;;;;;5082937;28;20032;-74
2022/10/21 02:58:54;;;;;;;0.00;0.00;;;;;;;;;;5076897;28;20158;-75
2022/10/21 03:01:20;;;;;;;0.00;0.00;;;;;;;;;;5074228;28;20048;-76
2022/10/21 03:03:47;;;;;;;0.85;0.85;;;;;;;;;;5065380;28;20120;-76
2022/10/21 03:06:16;;;;;;;1.02;1.02;;;;;;;;;;5075069;28;20029;-75
2022/10/21 03:08:42;;;;;;;0.70;0.70;;;;;;;;;;5068879;28;20028;-75
2022/10/21 03:11:09;;;;;;;0.00;0.00;;;;;;;;;;5082028;28;20021;-74
2022/10/21 03:13:38;;;;;;;0.50;0.50;;;;;;;;;;5058559;28;20107;-73
2022/10/21 03:16:04;;;;;;;1.75;1.67;;;;;;;;;;5085948;28;20119;-76
2022/10/21 03:18:31;;;;;;;0.00;0.00;;;;;;;;;;5084321;28;20035;-75
2022/10/21 03:20:57;;;;;;;0.00;0.00;;;;;;;;;;5061590;28;20033;-75
2022/10/21 03:23:23;;;;;;;0.00;0.00;;;;;;;;;;5084138;28;20094;-76
2022/10/21 03:25:50;;;;;;;2.83;1.80;;;;;;;;;;5082593;28;20020;-76
2022/10/21 03:28:16;;;;;;;1.17;1.08;;;;;;;;;;5081919;28;20021;-74
2022/10/21 03:30:42;;;;;;;0.00;0.00;;;;;;;;;;5067966;28;20020;-74
2022/10/21 03:33:09;;;;;;;0.20;0.20;;;;;;;;;;5095447;28;20500;-74
2022/10/21 03:35:35;;;;;;;0.47;0.47;;;;;;;;;;5087233;28;20118;-73
2022/10/21 03:38:01;;;;;;;0.00;0.00;;;;;;;;;;5083352;28;20110;-74
2022/10/21 03:40:29;;;;;;;0.00;0.00;;;;;;;;;;5069509;28;20025;-75
2022/10/21 03:42:56;;;;;;;0.08;0.08;;;;;;;;;;5079926;28;20405;-74
2022/10/21 03:45:22;;;;;;;0.00;0.00;;;;;;;;;;5113134;27;20044;-74
2022/10/21 03:47:48;;;;;;;1.63;1.60;;;;;;;;;;5108490;28;20031;-75
2022/10/21 03:50:15;;;;;;;0.45;0.45;;;;;;;;;;5085903;27;20028;-75
2022/10/21 03:52:41;;;;;;;0.10;0.10;;;;;;;;;;5098760;28;20023;-74
2022/10/21 03:55:08;;;;;;;0.00;0.00;;;;;;;;;;5098857;27;20028;-75
2022/10/21 03:57:37;;;;;;;0.10;0.10;;;;;;;;;;5104669;28;20102;-75
2022/10/21 04:00:04;;;;;;;0.32;0.32;;;;;;;;;;5087723;28;20030;-76
2022/10/21 04:02:30;;;;;;;30.83;27.80;;;;;;;;;;5110506;27;20070;-76
2022/10/21 04:04:57;;;;;;;0.05;0.05;;;;;;;;;;5093670;28;20060;-76
2022/10/21 04:07:23;;;;;;;0.20;0.20;;;;;;;;;;5083457;28;20059;-75
2022/10/21 04:09:49;;;;;;;0.00;0.00;;;;;;;;;;5090663;27;20020;-76
2022/10/21 04:12:16;;;;;;;0.00;0.00;;;;;;;;;;5111757;27;20387;-75
2022/10/21 04:14:42;;;;;;;0.20;0.20;;;;;;;;;;5084940;28;20058;-77
2022/10/21 04:17:09;;;;;;;5.38;3.78;;;;;;;;;;5114619;27;20027;-76
2022/10/21 04:19:35;;;;;;;0.00;0.00;;;;;;;;;;5105042;28;20042;-76
2022/10/21 04:22:01;;;;;;;0.32;0.32;;;;;;;;;;5105707;28;20033;-75
2022/10/21 04:24:27;;;;;;;0.10;0.10;;;;;;;;;;5113534;27;20034;-75
2022/10/21 04:26:54;;;;;;;0.57;0.55;;;;;;;;;;5105998;28;20039;-76
2022/10/21 04:29:20;;;;;;;0.00;0.00;;;;;;;;;;5105452;28;20054;-75
2022/10/21 04:31:47;;;;;;;1.75;1.65;;;;;;;;;;5109533;27;20024;-76
2022/10/21 04:34:13;;;;;;;0.08;0.08;;;;;;;;;;5097386;28;20031;-78
2022/10/21 04:36:40;;;;;;;0.00;0.00;;;;;;;;;;5109335;27;20040;-74
2022/10/21 04:39:06;;;;;;;13.85;11.30;;;;;;;;;;5088822;28;20028;-73
2022/10/21 04:41:35;;;;;;;0.10;0.10;;;;;;;;;;5088631;28;20031;-73
2022/10/21 04:44:02;;;;;;;0.00;0.00;;;;;;;;;;5091342;28;20066;-74
2022/10/21 04:46:28;;;;;;;1.23;1.17;;;;;;;;;;5105624;28;20020;-73
2022/10/21 04:48:54;;;;;;;5.50;1.65;;;;;;;;;;5102853;27;20052;-74
2022/10/21 04:51:21;;;;;;;0.00;0.00;;;;;;;;;;5108612;28;20382;-75
2022/10/21 04:53:47;;;;;;;0.00;0.00;;;;;;;;;;5103848;28;20028;-74
2022/10/21 04:56:17;;;;;;;0.00;0.00;;;;;;;;;;5105877;28;20020;-74
2022/10/21 04:58:43;;;;;;;0.00;0.00;;;;;;;;;;5094527;28;20114;-75
2022/10/21 05:01:09;;;;;;;0.88;0.52;;;;;;;;;;5107295;27;20058;-75
2022/10/21 05:03:36;;;;;;;3.55;3.45;;;;;;;;;;5095085;28;20059;-77
2022/10/21 05:06:02;;;;;;;0.03;0.03;;;;;;;;;;5089348;28;20073;-76
2022/10/21 05:08:28;;;;;;;0.00;0.00;;;;;;;;;;5103716;28;20022;-76
2022/10/21 05:11:01;;;;;;;0.00;0.00;;;;;;;;;;5109634;28;20032;-75
2022/10/21 05:13:28;;;;;;;0.43;0.43;;;;;;;;;;5090957;27;20024;-74
2022/10/21 05:15:58;;;;;;;1.88;1.85;;;;;;;;;;5107592;28;20054;-74
2022/10/21 05:18:24;;;;;;;0.00;0.00;;;;;;;;;;5100067;28;20024;-74
2022/10/21 05:20:51;;;;;;;1.15;1.15;;;;;;;;;;5098431;28;20034;-74
2022/10/21 05:23:18;;;;;;;0.10;0.10;;;;;;;;;;5076561;28;20035;-75
2022/10/21 05:25:45;;;;;;;0.00;0.00;;;;;;;;;;5105923;27;20027;-75
2022/10/21 05:28:11;;;;;;;0.50;0.47;;;;;;;;;;5108894;28;20016;-75
2022/10/21 05:30:37;;;;;;;1.45;1.25;;;;;;;;;;5104223;28;20019;-74
2022/10/21 05:33:04;;;;;;;0.00;0.00;;;;;;;;;;5101636;28;20039;-74
2022/10/21 05:35:30;;;;;;;0.00;0.00;;;;;;;;;;5098286;27;20027;-74
2022/10/21 05:37:56;;;;;;;1.33;1.25;;;;;;;;;;5106722;27;20127;-74
2022/10/21 05:40:23;;;;;;;0.00;0.00;;;;;;;;;;5108131;27;20029;-74
2022/10/21 05:42:50;;;;;;;2.20;1.08;;;;;;;;;;5101854;28;20043;-74
2022/10/21 05:45:16;;;;;;;1.90;1.80;;;;;;;;;;5099196;27;20051;-76
2022/10/21 05:47:43;;;;;;;1.95;1.73;;;;;;;;;;5087041;28;20085;-75
2022/10/21 05:50:10;;;;;;;1.38;1.27;;;;;;;;;;5099274;27;20033;-74
2022/10/21 05:52:40;;;;;;;0.00;0.00;;;;;;;;;;5103195;27;20024;-74
2022/10/21 05:55:07;;;;;;;0.90;0.90;;;;;;;;;;5082972;28;20478;-73
2022/10/21 05:57:34;;;;;;;2.42;2.22;;;;;;;;;;5104706;27;20059;-74
2022/10/21 06:00:00;;;;;;;0.10;0.10;;;;;;;;;;5085139;28;20031;-75
2022/10/21 06:02:27;;;;;;;7.00;2.67;;;;;;;;;;5108078;28;20068;-75
2022/10/21 06:04:53;;;;;;;0.20;0.20;;;;;;;;;;5105918;27;20031;-78
2022/10/21 06:07:19;;;;;;;1.67;1.10;;;;;;;;;;5100945;28;20438;-74
2022/10/21 06:09:46;;;;;;;0.38;0.35;;;;;;;;;;5089089;28;20020;-78
2022/10/21 06:12:12;;;;;;;0.10;0.10;;;;;;;;;;5109104;27;20024;-75
2022/10/21 06:14:39;;;;;;;0.00;0.00;;;;;;;;;;5103503;28;20099;-75
2022/10/21 06:17:05;;;;;;;0.20;0.20;;;;;;;;;;5110537;27;20020;-75
2022/10/21 06:19:31;;;;;;;0.40;0.22;;;;;;;;;;5106549;27;20028;-76
2022/10/21 06:21:58;;;;;;;0.10;0.10;;;;;;;;;;5096548;28;20035;-75
2022/10/21 06:24:24;;;;;;;0.00;0.00;;;;;;;;;;5082076;28;20027;-75
2022/10/21 06:26:51;;;;;;;0.22;0.22;;;;;;;;;;5086567;28;20069;-76
2022/10/21 06:29:17;;;;;;;4.28;2.30;;;;;;;;;;5085192;27;21353;-76
2022/10/21 06:31:44;;;;;;;0.00;0.00;;;;;;;;;;5085111;28;20032;-76
2022/10/21 06:34:11;;;;;;;0.70;0.70;;;;;;;;;;5086083;28;20036;-75
2022/10/21 06:36:37;;;;;;;0.00;0.00;;;;;;;;;;5086908;28;20040;-75
2022/10/21 06:39:04;;;;;;;1.00;1.00;;;;;;;;;;5106376;27;20031;-74
2022/10/21 06:41:30;;;;;;;0.75;0.60;;;;;;;;;;5100614;28;20023;-74
2022/10/21 06:43:57;;;;;;;0.00;0.00;;;;;;;;;;5097471;28;20058;-76
2022/10/21 06:46:23;;;;;;;1.58;1.13;;;;;;;;;;5084848;28;20424;-74
2022/10/21 06:48:50;;;;;;;0.98;0.95;;;;;;;;;;5106904;28;20103;-74
2022/10/21 06:51:18;;;;;;;0.55;0.55;;;;;;;;;;5103738;28;20030;-74
2022/10/21 06:53:44;;;;;;;0.00;0.00;;;;;;;;;;5103749;28;20031;-76
2022/10/21 06:56:12;;;;;;;1.83;1.67;;;;;;;;;;5097852;28;20577;-75
2022/10/21 06:58:45;;;;;;;0.30;0.30;;;;;;;;;;5105010;28;20019;-75
2022/10/21 07:01:19;;;;;;;0.85;0.57;;;;;;;;;;5089022;28;20123;-76
2022/10/21 07:03:45;;;;;;;2.63;2.42;;;;;;;;;;5082405;28;20032;-76
2022/10/21 07:06:12;;;;;;;3.47;1.13;;;;;;;;;;5105252;28;20023;-76
2022/10/21 07:08:39;;;;;;;0.00;0.00;;;;;;;;;;5089479;28;20051;-75
2022/10/21 07:11:05;;;;;;;0.68;0.68;;;;;;;;;;5104861;28;20031;-75
2022/10/21 07:13:31;;;;;;;0.00;0.00;;;;;;;;;;5105137;28;20496;-75
2022/10/21 07:16:02;;;;;;;0.00;0.00;;;;;;;;;;5090068;28;20027;-75
2022/10/21 07:18:28;;;;;;;0.13;0.13;;;;;;;;;;5089087;28;20060;-77
2022/10/21 07:20:55;;;;;;;0.00;0.00;;;;;;;;;;5100001;28;20031;-76
2022/10/21 07:23:21;;;;;;;0.00;0.00;;;;;;;;;;5096250;28;20032;-76
2022/10/21 07:25:48;;;;;;;0.10;0.10;;;;;;;;;;5090825;28;20029;-76
2022/10/21 07:28:14;;;;;;;0.00;0.00;;;;;;;;;;5074158;28;20031;-77
2022/10/21 07:30:44;;;;;;;0.00;0.00;;;;;;;;;;5102352;28;20028;-76
2022/10/21 07:33:11;;;;;;;1.20;1.20;;;;;;;;;;5083502;28;20513;-75
2022/10/21 07:35:38;;;;;;;0.00;0.00;;;;;;;;;;5085124;28;20031;-75
2022/10/21 07:38:04;;;;;;;6.20;3.60;;;;;;;;;;5100163;28;20019;-76
2022/10/21 07:40:30;;;;;;;16.90;7.10;;;;;;;;;;5083185;28;20032;-76
2022/10/21 07:42:57;;;;;;;8.82;6.32;;;;;;;;;;5098104;28;20051;-75
2022/10/21 07:45:23;;;;;;;2.97;2.28;;;;;;;;;;5103680;28;20553;-76
2022/10/21 07:47:50;;;;;;;0.57;0.43;;;;;;;;;;5104374;28;20104;-76
2022/10/21 07:50:16;;;;;;;0.85;0.70;;;;;;;;;;5086059;28;20019;-75
2022/10/21 07:52:45;;;;;;;5.13;1.10;;;;;;;;;;5085747;28;20027;-79
2022/10/21 07:55:12;;;;;;;0.20;0.20;;;;;;;;;;5100798;28;20028;-76
2022/10/21 07:57:39;;;;;;;0.00;0.00;;;;;;;;;;5105060;28;20042;-76
2022/10/21 08:00:06;;;;;;;0.30;0.30;;;;;;;;;;5083729;28;20192;-76
2022/10/21 08:02:33;;;;;;;0.00;0.00;;;;;;;;;;5102935;28;20027;-75
2022/10/21 08:04:59;;;;;;;0.55;0.55;;;;;;;;;;5105691;27;20060;-74
2022/10/21 08:07:26;;;;;;;0.00;0.00;;;;;;;;;;5090197;28;20027;-76
2022/10/21 08:09:58;;;;;;;0.00;0.00;;;;;;;;;;5108018;28;20166;-75
2022/10/21 08:12:25;;;;;;;0.45;0.30;;;;;;;;;;5110910;28;20371;-76
2022/10/21 08:14:52;;;;;;;0.40;0.40;;;;;;;;;;5105111;28;20020;-77
2022/10/21 08:17:18;;;;;;;0.95;0.95;;;;;;;;;;5106668;27;20481;-76
2022/10/21 08:19:45;;;;;;;0.65;0.30;;;;;;;;;;5112842;27;20031;-76
2022/10/21 08:22:12;;;;;;;0.32;0.28;;;;;;;;;;5116432;27;20020;-76
2022/10/21 08:24:38;;;;;;;3.83;3.30;;;;;;;;;;5112191;28;20028;-76
2022/10/21 08:27:05;;;;;;;0.00;0.00;;;;;;;;;;5099267;28;20020;-76
2022/10/21 08:29:31;;;;;;;0.00;0.00;;;;;;;;;;5103021;28;20398;-76
2022/10/21 08:31:59;;;;;;;0.60;0.60;;;;;;;;;;5122948;27;20031;-75
2022/10/21 08:34:26;;;;;;;1.17;1.17;;;;;;;;;;5126920;28;20028;-76
2022/10/21 08:36:52;;;;;;;3.78;3.53;;;;;;;;;;5115840;27;20085;-76
2022/10/21 08:39:23;;;;;;;0.00;0.00;;;;;;;;;;5112680;27;20038;-75
2022/10/21 08:42:02;;;;;;;0.15;0.15;;;;;;;;;;5086060;28;20027;-76
2022/10/21 08:44:37;;;;;;;0.00;0.00;;;;;;;;;;5089166;28;20028;-75
2022/10/21 08:47:04;;;;;;;0.13;0.13;;;;;;;;;;5089631;27;20115;-80
2022/10/21 08:49:37;;;;;;;0.65;0.65;;;;;;;;;;5106255;27;20034;-77
2022/10/21 08:52:05;;;;;;;0.00;0.00;;;;;;;;;;5107653;28;20028;-75
2022/10/21 08:54:44;;;;;;;0.00;0.00;;;;;;;;;;5084815;28;20038;-76
2022/10/21 08:57:11;;;;;;;0.00;0.00;;;;;;;;;;5116859;27;20038;-77
2022/10/21 08:59:41;;;;;;;0.08;0.08;;;;;;;;;;5082157;28;20062;-77
2022/10/21 09:02:21;;;;;;;0.00;0.00;;;;;;;;;;5098820;27;20428;-79
2022/10/21 09:04:50;;;;;;;0.00;0.00;;;;;;;;;;5084093;28;20167;-77
2022/10/21 09:07:19;;;;;;;0.05;0.05;;;;;;;;;;5100886;27;20081;-77
2022/10/21 09:09:53;;;;;;;0.00;0.00;;;;;;;;;;5097305;28;20028;-78
2022/10/21 09:12:25;;;;;;;1.02;0.93;;;;;;;;;;5103232;27;20090;-77
2022/10/21 09:14:55;;;;;;;0.05;0.05;;;;;;;;;;5083233;28;20023;-75
2022/10/21 09:17:34;;;;;;;0.65;0.65;;;;;;;;;;5100703;27;20450;-77
2022/10/21 09:20:04;;;;;;;3.22;3.03;;;;;;;;;;5102306;28;20024;-77
2022/10/21 09:22:30;;;;;;;0.43;0.43;;;;;;;;;;5090690;28;20026;-76
2022/10/21 09:25:03;;;;;;;0.00;0.00;;;;;;;;;;5099408;27;20027;-76
2022/10/21 09:27:30;;;;;;;0.85;0.85;;;;;;;;;;5088641;27;20030;-76
2022/10/21 09:30:00;;;;;;;0.28;0.28;;;;;;;;;;5108044;27;20327;-76
2022/10/21 09:32:48;;;;;;;2.70;2.17;;;;;;;;;;5105956;28;20097;-76
2022/10/21 09:35:23;;;;;;;0.00;0.00;;;;;;;;;;5103225;27;20027;-77
2022/10/21 09:37:50;;;;;;;0.00;0.00;;;;;;;;;;5103090;27;20038;-75
2022/10/21 09:40:17;;;;;;;1.30;1.20;;;;;;;;;;5103047;27;20038;-78
2022/10/21 09:42:44;;;;;;;0.00;0.00;;;;;;;;;;5087219;28;20039;-76
2022/10/21 09:45:20;;;;;;;0.20;0.20;;;;;;;;;;5103243;27;20413;-77
2022/10/21 09:47:49;;;;;;;0.00;0.00;;;;;;;;;;5104500;28;20011;-76
2022/10/21 09:50:17;;;;;;;0.38;0.38;;;;;;;;;;5090817;28;20024;-75
2022/10/21 09:52:45;;;;;;;2.63;1.00;;;;;;;;;;5100420;27;20077;-75
2022/10/21 09:55:13;;;;;;;0.88;0.80;;;;;;;;;;5106492;27;20020;-76
2022/10/21 09:57:51;;;;;;;0.38;0.38;;;;;;;;;;5087454;28;20031;-75
2022/10/21 10:00:18;;;;;;;0.00;0.00;;;;;;;;;;5100506;27;20039;-75
2022/10/21 10:02:45;;;;;;;1.27;1.02;;;;;;;;;;5095770;28;20490;-73
2022/10/21 10:05:30;;;;;;;1.13;1.02;;;;;;;;;;5098321;28;20112;-75
2022/10/21 10:07:56;;;;;;;0.10;0.10;;;;;;;;;;5105169;27;20023;-75
2022/10/21 10:10:30;;;;;;;0.05;0.05;;;;;;;;;;5100150;28;20038;-75
2022/10/21 10:12:57;;;;;;;0.00;0.00;;;;;;;;;;5113454;27;20102;-74
2022/10/21 10:15:25;;;;;;;0.00;0.00;;;;;;;;;;5106861;27;20035;-75
2022/10/21 10:17:56;;;;;;;0.00;0.00;;;;;;;;;;5104472;28;20089;-76
2022/10/21 10:20:22;;;;;;;0.00;0.00;;;;;;;;;;5092845;27;20135;-77
2022/10/21 10:22:58;;;;;;;0.55;0.45;;;;;;;;;;5103886;27;20147;-76
2022/10/21 10:25:29;;;;;;;0.00;0.00;;;;;;;;;;5099405;28;20020;-76
2022/10/21 10:28:00;;;;;;;0.00;0.00;;;;;;;;;;5084684;28;20031;-74
2022/10/21 10:30:49;;;;;;;0.00;0.00;;;;;;;;;;5102428;27;20445;-77
2022/10/21 10:33:25;;;;;;;0.05;0.05;;;;;;;;;;5078510;28;20530;-77
2022/10/21 10:35:53;;;;;;;0.00;0.00;;;;;;;;;;5101233;27;20028;-77
2022/10/21 10:38:40;;;;;;;0.00;0.00;;;;;;;;;;5084550;28;20065;-77
2022/10/21 10:41:11;;;;;;;1.40;1.30;;;;;;;;;;5102931;27;20122;-77
2022/10/21 10:43:43;;;;;;;0.00;0.00;;;;;;;;;;5094231;28;20068;-77
2022/10/21 10:46:16;;;;;;;0.00;0.00;;;;;;;;;;5092938;27;20023;-76
2022/10/21 10:48:45;;;;;;;0.00;0.00;;;;;;;;;;5101264;28;20035;-78
2022/10/21 10:51:31;;;;;;;0.00;0.00;;;;;;;;;;5105262;27;20032;-78
2022/10/21 10:54:06;;;;;;;0.10;0.10;;;;;;;;;;5099813;28;20020;-77
2022/10/21 10:56:35;;;;;;;0.08;0.08;;;;;;;;;;5105703;27;20028;-79
2022/10/21 10:59:11;;;;;;;0.00;0.00;;;;;;;;;;5084017;28;20473;-78
2022/10/21 11:01:40;;;;;;;0.00;0.00;;;;;;;;;;5099566;28;20095;-78
2022/10/21 11:04:18;;;;;;;50.50;29.70;;;;;;;;;;5104411;28;20019;-78
2022/10/21 11:06:47;;;;;;;4.13;2.38;;;;;;;;;;5084369;28;20068;-78
2022/10/21 11:09:14;;;;;;;0.20;0.20;;;;;;;;;;5088382;28;20103;-77
2022/10/21 11:11:43;;;;;;;0.00;0.00;;;;;;;;;;5083688;28;20024;-78
2022/10/21 11:14:17;;;;;;;0.35;0.35;;;;;;;;;;5103598;28;20397;-81
2022/10/21 11:16:58;;;;;;;0.00;0.00;;;;;;;;;;5079259;28;20027;-75
2022/10/21 11:19:37;;;;;;;0.25;0.25;;;;;;;;;;5103633;28;20164;-77
2022/10/21 11:22:22;;;;;;;0.00;0.00;;;;;;;;;;5102181;28;20553;-77
2022/10/21 11:25:03;;;;;;;1.35;1.30;;;;;;;;;;5100522;28;20064;-78
2022/10/21 11:27:45;;;;;;;0.00;0.00;;;;;;;;;;5104343;28;20077;-76
2022/10/21 11:30:13;;;;;;;0.00;0.00;;;;;;;;;;5098313;28;20028;-75
2022/10/21 11:32:42;;;;;;;0.00;0.00;;;;;;;;;;5102581;28;20038;-76
2022/10/21 11:35:21;;;;;;;0.00;0.00;;;;;;;;;;5077185;28;20027;-76
2022/10/21 11:38:03;;;;;;;0.00;0.00;;;;;;;;;;5104024;28;20062;-76
2022/10/21 11:40:29;;;;;;;0.47;0.47;;;;;;;;;;5101901;27;20086;-76
2022/10/21 11:42:58;;;;;;;0.70;0.68;;;;;;;;;;5108818;27;20085;-77
2022/10/21 11:45:43;;;;;;;0.35;0.35;;;;;;;;;;5101839;27;20730;-76
2022/10/21 11:48:27;;;;;;;9.15;8.27;;;;;;;;;;5099740;28;20024;-78
2022/10/21 11:51:12;;;;;;;0.00;0.00;;;;;;;;;;5107677;28;20035;-74
2022/10/21 11:53:57;;;;;;;3.65;3.40;;;;;;;;;;5082360;28;20024;-77
2022/10/21 11:56:29;;;;;;;1.65;1.65;;;;;;;;;;5099917;28;20474;-77
2022/10/21 11:59:03;;;;;;;0.15;0.15;;;;;;;;;;5115667;27;20366;-76
2022/10/21 12:01:36;;;;;;;0.00;0.00;;;;;;;;;;5093025;28;20089;-77
2022/10/21 12:04:06;;;;;;;0.00;0.00;;;;;;;;;;5087970;27;20513;-79
2022/10/21 12:06:47;;;;;;;0.00;0.00;;;;;;;;;;5110434;27;20039;-79
2022/10/21 12:09:16;;;;;;;0.00;0.00;;;;;;;;;;5091116;28;20021;-80
2022/10/21 12:11:45;;;;;;;0.00;0.00;;;;;;;;;;5108293;27;20106;-80
2022/10/21 12:14:18;;;;;;;0.38;0.38;;;;;;;;;;5090452;27;20026;-80
2022/10/21 12:16:45;;;;;;;0.00;0.00;;;;;;;;;;5110409;28;20478;-79
2022/10/21 12:19:13;;;;;;;0.00;0.00;;;;;;;;;;5107032;27;20068;-80
2022/10/21 12:21:41;;;;;;;0.00;0.00;;;;;;;;;;5122304;27;20053;-79
2022/10/21 12:24:14;;;;;;;0.00;0.00;;;;;;;;;;5105323;27;20114;-80
2022/10/21 12:26:45;;;;;;;0.00;0.00;;;;;;;;;;5108028;27;20019;-81
2022/10/21 12:29:26;;;;;;;0.10;0.10;;;;;;;;;;5111698;28;20047;-79
2022/10/21 12:31:52;;;;;;;0.00;0.00;;;;;;;;;;5099343;28;20324;-80
2022/10/21 12:34:19;;;;;;;0.00;0.00;;;;;;;;;;5106894;27;20028;-79
2022/10/21 12:36:48;;;;;;;0.28;0.28;;;;;;;;;;5108740;28;20139;-79
2022/10/21 12:39:17;;;;;;;0.00;0.00;;;;;;;;;;5111271;27;20027;-80
2022/10/21 12:41:45;;;;;;;0.00;0.00;;;;;;;;;;5104518;28;20042;-80
2022/10/21 12:44:22;;;;;;;0.60;0.60;;;;;;;;;;5128561;27;20042;-79
2022/10/21 12:46:54;;;;;;;0.00;0.00;;;;;;;;;;5093820;28;20027;-79
2022/10/21 12:49:24;;;;;;;1.35;1.35;;;;;;;;;;5115422;27;20024;-78
2022/10/21 12:51:53;;;;;;;0.30;0.30;;;;;;;;;;5087286;28;20024;-80
2022/10/21 12:54:22;;;;;;;0.28;0.28;;;;;;;;;;5104966;28;20496;-79
2022/10/21 12:56:49;;;;;;;0.00;0.00;;;;;;;;;;5096395;28;20055;-79
2022/10/21 12:59:27;;;;;;;0.00;0.00;;;;;;;;;;5097854;28;20478;-79
2022/10/21 13:02:08;;;;;;;0.00;0.00;;;;;;;;;;5107626;28;20032;-79
2022/10/21 13:04:35;;;;;;;0.15;0.15;;;;;;;;;;5102629;28;20032;-79
2022/10/21 13:07:08;;;;;;;0.57;0.57;;;;;;;;;;5077491;28;20043;-78
2022/10/21 13:09:35;;;;;;;0.68;0.68;;;;;;;;;;5083134;28;20048;-79
2022/10/21 13:12:10;;;;;;;11.38;5.07;;;;;;;;;;5102088;27;20066;-79
2022/10/21 13:14:47;;;;;;;5.38;3.38;;;;;;;;;;5085199;28;20024;-79
2022/10/21 13:17:36;;;;;;;2.70;2.50;;;;;;;;;;5108082;28;20028;-80
2022/10/21 13:20:14;;;;;;;20.77;13.60;;;;;;;;;;5078851;28;20040;-80
2022/10/21 13:22:44;;;;;;;8.55;5.40;;;;;;;;;;5112513;28;20046;-79
2022/10/21 13:25:29;;;;;;;18.17;8.48;;;;;;;;;;5106241;28;20033;-78
2022/10/21 13:28:06;;;;;;;22.08;8.48;;;;;;;;;;5082804;28;20016;-80
2022/10/21 13:30:33;;;;;;;13.18;8.57;;;;;;;;;;5096376;28;20031;-80
2022/10/21 13:33:14;;;;;;;27.42;13.02;;;;;;;;;;5110220;27;20024;-80
2022/10/21 13:35:41;;;;;;;5.82;3.33;;;;;;;;;;5093772;28;20032;-80
2022/10/21 13:38:19;;;;;;;9.77;2.10;;;;;;;;;;5101236;28;20028;-81
2022/10/21 13:40:47;;;;;;;0.93;0.93;;;;;;;;;;5098317;28;20036;-79
2022/10/21 13:43:15;;;;;;;7.18;4.45;;;;;;;;;;5105224;28;20374;-80
2022/10/21 13:45:54;;;;;;;7.32;6.63;;;;;;;;;;5092415;28;20028;-79
2022/10/21 13:48:23;;;;;;;17.10;9.85;;;;;;;;;;5109981;28;20428;-79
2022/10/21 13:50:51;;;;;;;11.90;9.93;;;;;;;;;;5093666;28;20393;-79
2022/10/21 13:53:18;;;;;;;6.53;4.57;;;;;;;;;;5097874;28;20103;-79
2022/10/21 13:55:58;;;;;;;2.03;1.92;;;;;;;;;;5089757;28;20739;-79
2022/10/21 13:58:25;;;;;;;5.75;3.42;;;;;;;;;;5096841;28;20023;-79
2022/10/21 14:00:51;;;;;;;7.93;3.53;;;;;;;;;;5087704;28;20043;-79
2022/10/21 14:03:20;;;;;;;3.65;3.13;;;;;;;;;;5083675;28;20068;-80
2022/10/21 14:05:49;;;;;;;3.88;3.53;;;;;;;;;;5112185;28;20023;-79
2022/10/21 14:08:21;;;;;;;4.70;1.45;;;;;;;;;;5107120;28;20534;-79
2022/10/21 14:10:48;;;;;;;4.53;3.75;;;;;;;;;;5102699;28;20035;-80
2022/10/21 14:13:30;;;;;;;0.98;0.98;;;;;;;;;;5109846;28;20024;-79
2022/10/21 14:15:56;;;;;;;0.95;0.93;;;;;;;;;;5107452;27;20028;-79
2022/10/21 14:18:28;;;;;;;6.20;3.80;;;;;;;;;;5112373;28;20036;-80
2022/10/21 14:20:54;;;;;;;4.13;2.17;;;;;;;;;;5105477;28;20257;-79
2022/10/21 14:23:21;;;;;;;7.13;6.15;;;;;;;;;;5092487;28;20027;-78
2022/10/21 14:25:48;;;;;;;11.50;6.28;;;;;;;;;;5111613;28;20020;-78
2022/10/21 14:28:15;;;;;;;2.55;2.40;;;;;;;;;;5105881;28;20016;-78
2022/10/21 14:30:42;;;;;;;10.63;3.22;;;;;;;;;;5085405;28;20023;-78
2022/10/21 14:33:14;;;;;;;13.38;12.25;;;;;;;;;;5094393;28;20080;-79
2022/10/21 14:35:41;;;;;;;7.65;4.88;;;;;;;;;;5109970;27;20106;-78
2022/10/21 14:38:27;;;;;;;7.43;5.22;;;;;;;;;;5107074;27;20118;-77
2022/10/21 14:40:57;;;;;;;7.38;5.10;;;;;;;;;;5112610;27;20094;-78
2022/10/21 14:43:32;;;;;;;12.05;11.15;;;;;;;;;;5091271;28;20039;-80